Time;durP1;ratioP1;P1;durP2;ratioP2;P2;SDS_P1;SDS_P2;PMS_P1;PMS_P2;Temp;Humidity;BMP_temperature;BMP_pressure;BME280_temperature;BME280_humidity;BME280_pressure;Samples;Min_cycle;Max_cycle;Signal;HPM_P1;HPM_P2
2022/08/27 00:00:13;;;;;;;0.20;0.20;;;;;;;;;;5053434;28;20457;-73
2022/08/27 00:02:39;;;;;;;0.50;0.50;;;;;;;;;;5053207;28;20040;-74
2022/08/27 00:05:04;;;;;;;0.30;0.30;;;;;;;;;;5053162;28;20025;-75
2022/08/27 00:07:30;;;;;;;0.75;0.75;;;;;;;;;;5053472;28;20060;-74
2022/08/27 00:09:56;;;;;;;0.40;0.40;;;;;;;;;;5053434;28;20071;-73
2022/08/27 00:12:21;;;;;;;0.20;0.20;;;;;;;;;;5053460;28;20025;-74
2022/08/27 00:14:47;;;;;;;0.22;0.22;;;;;;;;;;5035431;28;20388;-74
2022/08/27 00:17:13;;;;;;;0.30;0.30;;;;;;;;;;5053203;28;20081;-74
2022/08/27 00:19:39;;;;;;;0.20;0.20;;;;;;;;;;5035215;28;20029;-73
2022/08/27 00:22:05;;;;;;;0.20;0.20;;;;;;;;;;5053199;28;20024;-73
2022/08/27 00:24:31;;;;;;;0.20;0.20;;;;;;;;;;5053241;28;20033;-74
2022/08/27 00:26:56;;;;;;;0.20;0.20;;;;;;;;;;5053277;28;20113;-73
2022/08/27 00:29:22;;;;;;;0.13;0.13;;;;;;;;;;5053103;28;20057;-74
2022/08/27 00:31:47;;;;;;;0.30;0.30;;;;;;;;;;5052976;28;20079;-73
2022/08/27 00:34:13;;;;;;;0.30;0.30;;;;;;;;;;5052830;28;20029;-74
2022/08/27 00:36:39;;;;;;;0.98;0.90;;;;;;;;;;5052933;28;20036;-74
2022/08/27 00:39:05;;;;;;;0.30;0.30;;;;;;;;;;5053262;28;20361;-74
2022/08/27 00:41:32;;;;;;;0.20;0.20;;;;;;;;;;5053008;28;20056;-75
2022/08/27 00:43:59;;;;;;;0.25;0.25;;;;;;;;;;5053052;28;20044;-73
2022/08/27 00:46:31;;;;;;;0.20;0.20;;;;;;;;;;5052829;28;20036;-73
2022/08/27 00:49:00;;;;;;;2.63;1.10;;;;;;;;;;5052578;28;20033;-74
2022/08/27 00:51:27;;;;;;;0.30;0.30;;;;;;;;;;5052759;28;20033;-74
2022/08/27 00:53:55;;;;;;;0.20;0.20;;;;;;;;;;5052637;28;20045;-73
2022/08/27 00:56:22;;;;;;;0.30;0.30;;;;;;;;;;5053013;28;20029;-74
2022/08/27 00:58:50;;;;;;;0.32;0.32;;;;;;;;;;5053724;28;20029;-74
2022/08/27 01:01:18;;;;;;;0.20;0.20;;;;;;;;;;5040328;28;20025;-76
2022/08/27 01:03:46;;;;;;;0.20;0.20;;;;;;;;;;5059034;28;20086;-75
2022/08/27 01:06:13;;;;;;;0.20;0.20;;;;;;;;;;5041341;28;20025;-74
2022/08/27 01:08:41;;;;;;;0.55;0.55;;;;;;;;;;5043813;28;20033;-74
2022/08/27 01:11:07;;;;;;;1.00;0.90;;;;;;;;;;5073016;28;20088;-74
2022/08/27 01:13:41;;;;;;;0.10;0.10;;;;;;;;;;5072698;28;20079;-74
2022/08/27 01:16:10;;;;;;;0.35;0.35;;;;;;;;;;5046678;28;20403;-74
2022/08/27 01:18:37;;;;;;;0.30;0.30;;;;;;;;;;5057285;28;20044;-74
2022/08/27 01:21:08;;;;;;;0.20;0.20;;;;;;;;;;5056657;28;20025;-73
2022/08/27 01:23:38;;;;;;;0.20;0.20;;;;;;;;;;5056905;28;20045;-73
2022/08/27 01:26:05;;;;;;;0.50;0.50;;;;;;;;;;5056459;28;20403;-74
2022/08/27 01:28:32;;;;;;;0.20;0.20;;;;;;;;;;5038296;28;20029;-74
2022/08/27 01:30:58;;;;;;;7.32;4.13;;;;;;;;;;5056242;28;20052;-74
2022/08/27 01:33:24;;;;;;;0.20;0.20;;;;;;;;;;5056507;28;20061;-75
2022/08/27 01:35:51;;;;;;;0.25;0.25;;;;;;;;;;5056277;28;20025;-74
2022/08/27 01:38:17;;;;;;;0.20;0.20;;;;;;;;;;5038322;28;20051;-73
2022/08/27 01:40:42;;;;;;;0.20;0.20;;;;;;;;;;5056293;28;20383;-73
2022/08/27 01:43:08;;;;;;;0.30;0.30;;;;;;;;;;5055923;28;20037;-73
2022/08/27 01:45:37;;;;;;;0.17;0.17;;;;;;;;;;5055920;28;20123;-73
2022/08/27 01:48:04;;;;;;;0.30;0.30;;;;;;;;;;5056152;28;20032;-74
2022/08/27 01:50:31;;;;;;;0.20;0.20;;;;;;;;;;5056079;28;20028;-75
2022/08/27 01:53:00;;;;;;;0.40;0.40;;;;;;;;;;5056067;28;20029;-73
2022/08/27 01:55:25;;;;;;;;;;;;;;;;;;5038354;28;20025;-74
2022/08/27 01:57:53;;;;;;;0.95;0.82;;;;;;;;;;5055451;28;20322;-74
2022/08/27 02:00:20;;;;;;;0.40;0.40;;;;;;;;;;5055920;28;20060;-73
2022/08/27 02:02:46;;;;;;;0.20;0.20;;;;;;;;;;5055750;28;20110;-74
2022/08/27 02:05:13;;;;;;;0.20;0.20;;;;;;;;;;5055732;28;20021;-74
2022/08/27 02:07:39;;;;;;;0.80;0.63;;;;;;;;;;5037933;28;20072;-74
2022/08/27 02:10:05;;;;;;;0.20;0.20;;;;;;;;;;5055665;28;20064;-73
2022/08/27 02:12:31;;;;;;;0.20;0.20;;;;;;;;;;5055378;28;20033;-74
2022/08/27 02:14:57;;;;;;;0.20;0.20;;;;;;;;;;5055685;28;20021;-74
2022/08/27 02:17:22;;;;;;;0.30;0.30;;;;;;;;;;5055568;28;20052;-74
2022/08/27 02:19:48;;;;;;;0.20;0.20;;;;;;;;;;5055450;28;20029;-74
2022/08/27 02:22:14;;;;;;;0.30;0.30;;;;;;;;;;5055229;28;20422;-74
2022/08/27 02:24:40;;;;;;;0.10;0.10;;;;;;;;;;5055109;28;20044;-74
2022/08/27 02:27:06;;;;;;;2.03;1.88;;;;;;;;;;5037598;28;20029;-74
2022/08/27 02:29:33;;;;;;;0.20;0.20;;;;;;;;;;5055085;28;20029;-73
2022/08/27 02:32:00;;;;;;;0.38;0.38;;;;;;;;;;5055341;28;20025;-74
2022/08/27 02:34:26;;;;;;;0.20;0.20;;;;;;;;;;5055203;28;20017;-75
2022/08/27 02:36:52;;;;;;;6.30;5.68;;;;;;;;;;5055039;28;20486;-74
2022/08/27 02:39:18;;;;;;;0.30;0.30;;;;;;;;;;5055001;28;20021;-74
2022/08/27 02:41:44;;;;;;;0.22;0.22;;;;;;;;;;5054700;28;20087;-74
2022/08/27 02:44:10;;;;;;;1.08;1.02;;;;;;;;;;5054718;28;20076;-74
2022/08/27 02:46:36;;;;;;;0.30;0.30;;;;;;;;;;5055024;28;20033;-74
2022/08/27 02:49:01;;;;;;;0.70;0.70;;;;;;;;;;5054789;28;20029;-74
2022/08/27 02:51:27;;;;;;;0.20;0.20;;;;;;;;;;5054937;28;20051;-74
2022/08/27 02:53:53;;;;;;;0.20;0.20;;;;;;;;;;5037312;28;20372;-73
2022/08/27 02:56:19;;;;;;;0.45;0.43;;;;;;;;;;5054536;28;20039;-75
2022/08/27 02:58:45;;;;;;;0.20;0.20;;;;;;;;;;5054718;28;20111;-74
2022/08/27 03:01:10;;;;;;;0.20;0.20;;;;;;;;;;5054761;28;20028;-74
2022/08/27 03:03:37;;;;;;;0.22;0.22;;;;;;;;;;5049785;28;20487;-74
2022/08/27 03:06:03;;;;;;;0.20;0.20;;;;;;;;;;5050978;28;20051;-75
2022/08/27 03:08:29;;;;;;;0.30;0.30;;;;;;;;;;5050771;28;20033;-73
2022/08/27 03:10:55;;;;;;;1.00;0.98;;;;;;;;;;5050950;28;20413;-74
2022/08/27 03:13:21;;;;;;;21.17;10.93;;;;;;;;;;5051110;28;20024;-74
2022/08/27 03:15:47;;;;;;;0.20;0.20;;;;;;;;;;5050678;28;20391;-74
2022/08/27 03:18:20;;;;;;;0.20;0.20;;;;;;;;;;5050867;28;20017;-74
2022/08/27 03:20:50;;;;;;;0.65;0.65;;;;;;;;;;5050257;28;20037;-77
2022/08/27 03:23:17;;;;;;;0.30;0.30;;;;;;;;;;5049898;28;20033;-74
2022/08/27 03:25:50;;;;;;;0.20;0.20;;;;;;;;;;5050411;28;20082;-74
2022/08/27 03:28:16;;;;;;;0.20;0.20;;;;;;;;;;5051046;28;20044;-73
2022/08/27 03:30:44;;;;;;;0.20;0.20;;;;;;;;;;5050233;28;20033;-74
2022/08/27 03:33:11;;;;;;;0.20;0.20;;;;;;;;;;5050738;28;20090;-76
2022/08/27 03:35:36;;;;;;;0.20;0.20;;;;;;;;;;5032498;28;20047;-74
2022/08/27 03:38:03;;;;;;;0.20;0.20;;;;;;;;;;5050702;28;20460;-74
2022/08/27 03:40:28;;;;;;;0.20;0.20;;;;;;;;;;5049549;28;20052;-75
2022/08/27 03:42:54;;;;;;;0.20;0.20;;;;;;;;;;5050301;28;20596;-74
2022/08/27 03:45:20;;;;;;;0.25;0.25;;;;;;;;;;5049949;28;20393;-74
2022/08/27 03:47:46;;;;;;;0.20;0.20;;;;;;;;;;5050096;28;20087;-74
2022/08/27 03:50:11;;;;;;;0.30;0.30;;;;;;;;;;5050027;28;20028;-73
2022/08/27 03:52:37;;;;;;;0.20;0.20;;;;;;;;;;5032109;28;20025;-74
2022/08/27 03:55:05;;;;;;;0.20;0.20;;;;;;;;;;5031739;28;20036;-76
2022/08/27 03:57:31;;;;;;;0.20;0.20;;;;;;;;;;5049740;28;20350;-77
2022/08/27 03:59:57;;;;;;;0.32;0.32;;;;;;;;;;5050174;28;20075;-73
2022/08/27 04:02:23;;;;;;;0.22;0.22;;;;;;;;;;5031691;28;20090;-74
2022/08/27 04:04:48;;;;;;;0.22;0.22;;;;;;;;;;5049618;28;20029;-74
2022/08/27 04:07:15;;;;;;;0.20;0.20;;;;;;;;;;5049852;28;20388;-74
2022/08/27 04:09:41;;;;;;;0.20;0.20;;;;;;;;;;5049510;28;20472;-73
2022/08/27 04:12:07;;;;;;;0.57;0.57;;;;;;;;;;5049503;28;20111;-74
2022/08/27 04:14:33;;;;;;;0.25;0.25;;;;;;;;;;5049241;28;20037;-75
2022/08/27 04:16:59;;;;;;;0.20;0.20;;;;;;;;;;5049567;28;20024;-74
2022/08/27 04:19:26;;;;;;;0.20;0.20;;;;;;;;;;5049516;28;20037;-73
2022/08/27 04:21:52;;;;;;;0.20;0.20;;;;;;;;;;5049843;28;20032;-74
2022/08/27 04:24:18;;;;;;;0.20;0.20;;;;;;;;;;5049346;28;20041;-75
2022/08/27 04:26:46;;;;;;;0.20;0.20;;;;;;;;;;5049188;28;20033;-74
2022/08/27 04:29:11;;;;;;;0.20;0.20;;;;;;;;;;5049336;28;20465;-74
2022/08/27 04:31:37;;;;;;;0.20;0.20;;;;;;;;;;5049343;28;20025;-73
2022/08/27 04:34:06;;;;;;;0.20;0.20;;;;;;;;;;5050621;28;20082;-74
2022/08/27 04:36:32;;;;;;;0.38;0.38;;;;;;;;;;5053389;28;20048;-74
2022/08/27 04:38:57;;;;;;;0.30;0.30;;;;;;;;;;5035135;28;20464;-75
2022/08/27 04:41:26;;;;;;;0.82;0.77;;;;;;;;;;5053428;28;20091;-75
2022/08/27 04:43:56;;;;;;;0.50;0.50;;;;;;;;;;5035240;28;20040;-75
2022/08/27 04:46:27;;;;;;;0.20;0.20;;;;;;;;;;5053119;28;20115;-75
2022/08/27 04:48:54;;;;;;;0.63;0.60;;;;;;;;;;5052893;28;20025;-75
2022/08/27 04:51:19;;;;;;;0.30;0.30;;;;;;;;;;5053024;28;20024;-74
2022/08/27 04:53:45;;;;;;;0.20;0.20;;;;;;;;;;5053082;28;20090;-74
2022/08/27 04:56:14;;;;;;;0.30;0.30;;;;;;;;;;5035269;28;20043;-73
2022/08/27 04:58:40;;;;;;;;;;;;;;;;;;5053356;28;20541;-74
2022/08/27 05:01:06;;;;;;;0.30;0.30;;;;;;;;;;5052985;28;20001;-76
2022/08/27 05:03:32;;;;;;;0.20;0.20;;;;;;;;;;5052821;28;20033;-75
2022/08/27 05:05:59;;;;;;;0.20;0.20;;;;;;;;;;5034819;28;20390;-75
2022/08/27 05:08:25;;;;;;;0.95;0.95;;;;;;;;;;5018284;28;20037;-74
2022/08/27 05:10:51;;;;;;;0.32;0.32;;;;;;;;;;5053170;28;20116;-74
2022/08/27 05:13:18;;;;;;;0.30;0.30;;;;;;;;;;5034896;28;20510;-73
2022/08/27 05:15:45;;;;;;;0.20;0.20;;;;;;;;;;5034706;28;20029;-74
2022/08/27 05:18:12;;;;;;;0.20;0.20;;;;;;;;;;5034741;28;20029;-79
2022/08/27 05:20:47;;;;;;;0.20;0.20;;;;;;;;;;5052323;28;20044;-75
2022/08/27 05:23:14;;;;;;;0.20;0.20;;;;;;;;;;5034753;28;20128;-74
2022/08/27 05:25:41;;;;;;;0.20;0.20;;;;;;;;;;5052789;28;20029;-74
2022/08/27 05:28:08;;;;;;;0.28;0.28;;;;;;;;;;5052727;28;20444;-75
2022/08/27 05:30:35;;;;;;;0.20;0.20;;;;;;;;;;5052461;28;20013;-73
2022/08/27 05:33:02;;;;;;;0.28;0.28;;;;;;;;;;5052589;28;20075;-75
2022/08/27 05:35:28;;;;;;;0.20;0.20;;;;;;;;;;5034877;28;20036;-74
2022/08/27 05:37:53;;;;;;;0.20;0.20;;;;;;;;;;5072946;28;20477;-76
2022/08/27 05:40:20;;;;;;;0.20;0.20;;;;;;;;;;5074207;28;20045;-75
2022/08/27 05:42:46;;;;;;;0.20;0.20;;;;;;;;;;5073535;28;20091;-77
2022/08/27 05:45:12;;;;;;;0.20;0.20;;;;;;;;;;5066986;28;20025;-79
2022/08/27 05:47:38;;;;;;;0.22;0.22;;;;;;;;;;5053088;28;20190;-74
2022/08/27 05:50:04;;;;;;;0.50;0.50;;;;;;;;;;5053066;28;20017;-75
2022/08/27 05:52:29;;;;;;;0.20;0.20;;;;;;;;;;5034793;28;20086;-73
2022/08/27 05:54:55;;;;;;;0.20;0.20;;;;;;;;;;5052706;28;20033;-74
2022/08/27 05:57:20;;;;;;;0.30;0.30;;;;;;;;;;5052694;28;20028;-74
2022/08/27 06:02:38;;;;;;;0.20;0.20;;;;;;;;;;5051707;28;20149;-74
2022/08/27 06:05:03;;;;;;;0.20;0.20;;;;;;;;;;5052717;28;20573;-74
2022/08/27 06:07:30;;;;;;;0.20;0.20;;;;;;;;;;5052755;28;20027;-74
2022/08/27 06:09:57;;;;;;;0.30;0.30;;;;;;;;;;5034459;28;20079;-74
2022/08/27 06:12:23;;;;;;;0.20;0.20;;;;;;;;;;5052620;28;20191;-75
2022/08/27 06:14:49;;;;;;;0.30;0.30;;;;;;;;;;5052053;28;20062;-74
2022/08/27 06:17:15;;;;;;;1.17;1.17;;;;;;;;;;5051863;28;20122;-74
2022/08/27 06:19:41;;;;;;;0.20;0.20;;;;;;;;;;5052245;28;20033;-74
2022/08/27 06:22:07;;;;;;;0.20;0.20;;;;;;;;;;5052459;28;20021;-74
2022/08/27 06:24:33;;;;;;;0.20;0.20;;;;;;;;;;5051922;28;20473;-73
2022/08/27 06:26:59;;;;;;;0.30;0.30;;;;;;;;;;5052381;28;20027;-72
2022/08/27 06:29:25;;;;;;;1.30;1.30;;;;;;;;;;5051764;28;20037;-75
2022/08/27 06:31:51;;;;;;;0.22;0.22;;;;;;;;;;5051591;28;20028;-74
2022/08/27 06:34:17;;;;;;;0.30;0.30;;;;;;;;;;5051936;28;20029;-79
2022/08/27 06:36:43;;;;;;;0.30;0.30;;;;;;;;;;5051797;28;20093;-74
2022/08/27 06:39:12;;;;;;;0.30;0.30;;;;;;;;;;5051382;28;20092;-73
2022/08/27 06:41:38;;;;;;;0.30;0.30;;;;;;;;;;5051334;28;20144;-74
2022/08/27 06:44:10;;;;;;;0.30;0.30;;;;;;;;;;5050835;28;20033;-75
2022/08/27 06:46:37;;;;;;;0.30;0.30;;;;;;;;;;5051756;28;20028;-76
2022/08/27 06:49:02;;;;;;;0.40;0.40;;;;;;;;;;5051425;28;20017;-74
2022/08/27 06:51:30;;;;;;;0.30;0.30;;;;;;;;;;5051513;28;20032;-74
2022/08/27 06:53:56;;;;;;;0.30;0.30;;;;;;;;;;5051093;28;20040;-73
2022/08/27 06:56:22;;;;;;;0.22;0.22;;;;;;;;;;5050017;28;20087;-75
2022/08/27 06:58:51;;;;;;;0.30;0.30;;;;;;;;;;5051231;28;20021;-80
2022/08/27 07:01:21;;;;;;;0.40;0.40;;;;;;;;;;5051498;28;20033;-75
2022/08/27 07:03:47;;;;;;;0.30;0.30;;;;;;;;;;5033400;28;20044;-74
2022/08/27 07:06:14;;;;;;;0.38;0.38;;;;;;;;;;5050820;28;20025;-77
2022/08/27 07:08:40;;;;;;;0.30;0.30;;;;;;;;;;5051165;28;20071;-72
2022/08/27 07:11:07;;;;;;;0.30;0.30;;;;;;;;;;5051006;28;20029;-75
2022/08/27 07:13:33;;;;;;;0.20;0.20;;;;;;;;;;5050554;28;20033;-75
2022/08/27 07:16:02;;;;;;;0.30;0.30;;;;;;;;;;5051089;28;20364;-73
2022/08/27 07:18:28;;;;;;;2.92;2.83;;;;;;;;;;5050728;28;20032;-74
2022/08/27 07:20:54;;;;;;;0.30;0.30;;;;;;;;;;5050910;28;20476;-74
2022/08/27 07:23:20;;;;;;;0.35;0.35;;;;;;;;;;5050183;28;20368;-72
2022/08/27 07:25:45;;;;;;;0.30;0.30;;;;;;;;;;5050680;28;20495;-79
2022/08/27 07:28:11;;;;;;;0.30;0.30;;;;;;;;;;5050470;28;20029;-74
2022/08/27 07:30:37;;;;;;;0.30;0.30;;;;;;;;;;5049943;28;20028;-74
2022/08/27 07:33:03;;;;;;;0.40;0.40;;;;;;;;;;5050527;28;20029;-74
2022/08/27 07:35:30;;;;;;;0.50;0.50;;;;;;;;;;5050328;28;20870;-79
2022/08/27 07:37:56;;;;;;;0.30;0.30;;;;;;;;;;5050466;28;20061;-79
2022/08/27 07:40:21;;;;;;;0.43;0.43;;;;;;;;;;5032459;28;20080;-74
2022/08/27 07:45:31;;;;;;;0.40;0.40;;;;;;;;;;5050083;28;20112;-74
2022/08/27 07:47:58;;;;;;;0.40;0.40;;;;;;;;;;5049908;28;20132;-74
2022/08/27 07:50:24;;;;;;;0.25;0.25;;;;;;;;;;5049628;28;20421;-75
2022/08/27 07:52:50;;;;;;;0.40;0.40;;;;;;;;;;5050332;28;20037;-73
2022/08/27 07:55:15;;;;;;;0.40;0.40;;;;;;;;;;5049891;28;20064;-74
2022/08/27 07:57:41;;;;;;;1.38;0.60;;;;;;;;;;5032331;28;20060;-74
2022/08/27 08:00:11;;;;;;;0.40;0.40;;;;;;;;;;5049663;28;20067;-74
2022/08/27 08:02:41;;;;;;;0.50;0.50;;;;;;;;;;5031906;28;20068;-73
2022/08/27 08:05:06;;;;;;;0.38;0.38;;;;;;;;;;5049827;28;20025;-74
2022/08/27 08:07:33;;;;;;;0.40;0.40;;;;;;;;;;5049505;28;20874;-73
2022/08/27 08:09:59;;;;;;;0.40;0.40;;;;;;;;;;5049494;28;20033;-77
2022/08/27 08:12:24;;;;;;;0.35;0.35;;;;;;;;;;5049401;28;20559;-72
2022/08/27 08:14:54;;;;;;;0.45;0.45;;;;;;;;;;5049535;28;20025;-73
2022/08/27 08:17:20;;;;;;;0.47;0.47;;;;;;;;;;5050017;28;20037;-73
2022/08/27 08:19:46;;;;;;;0.40;0.40;;;;;;;;;;5049595;28;20021;-77
2022/08/27 08:22:11;;;;;;;0.40;0.40;;;;;;;;;;5049585;28;20033;-74
2022/08/27 08:24:37;;;;;;;0.50;0.50;;;;;;;;;;5048886;28;20074;-74
2022/08/27 08:27:02;;;;;;;0.35;0.35;;;;;;;;;;5049707;28;20043;-73
2022/08/27 08:29:28;;;;;;;0.43;0.43;;;;;;;;;;5031377;28;20029;-75
2022/08/27 08:31:53;;;;;;;0.40;0.40;;;;;;;;;;5051370;28;20082;-74
2022/08/27 08:34:19;;;;;;;0.40;0.40;;;;;;;;;;5069723;28;20492;-75
2022/08/27 08:36:45;;;;;;;0.35;0.35;;;;;;;;;;5069489;28;20521;-74
2022/08/27 08:39:11;;;;;;;0.30;0.30;;;;;;;;;;5051440;28;20031;-74
2022/08/27 08:41:36;;;;;;;0.40;0.40;;;;;;;;;;5068887;28;20049;-73
2022/08/27 08:44:07;;;;;;;0.70;0.70;;;;;;;;;;5069343;28;20037;-73
2022/08/27 08:46:36;;;;;;;0.40;0.40;;;;;;;;;;5069212;28;20040;-74
2022/08/27 08:49:01;;;;;;;;;;;;;;;;;;5069968;28;20028;-72
2022/08/27 08:51:39;;;;;;;0.68;0.60;;;;;;;;;;5069195;28;19908;-75
2022/08/27 08:54:09;;;;;;;0.40;0.40;;;;;;;;;;5068963;28;20094;-74
2022/08/27 08:56:42;;;;;;;0.30;0.30;;;;;;;;;;5069046;28;20035;-74
2022/08/27 08:59:17;;;;;;;0.40;0.40;;;;;;;;;;5069509;28;20028;-73
2022/08/27 09:01:44;;;;;;;0.35;0.35;;;;;;;;;;5069109;28;20380;-74
2022/08/27 09:04:10;;;;;;;0.70;0.70;;;;;;;;;;5069245;28;20448;-73
2022/08/27 09:06:39;;;;;;;0.50;0.50;;;;;;;;;;5068644;28;20111;-74
2022/08/27 09:09:23;;;;;;;0.40;0.40;;;;;;;;;;5069094;28;20442;-74
2022/08/27 09:12:01;;;;;;;1.08;1.02;;;;;;;;;;5069096;28;20494;-76
2022/08/27 09:14:33;;;;;;;0.70;0.70;;;;;;;;;;5050822;28;20036;-74
2022/08/27 09:16:59;;;;;;;0.50;0.50;;;;;;;;;;5069025;28;20024;-74
2022/08/27 09:19:26;;;;;;;0.60;0.60;;;;;;;;;;5069479;28;20032;-73
2022/08/27 09:22:05;;;;;;;1.30;1.20;;;;;;;;;;5072688;28;20379;-72
2022/08/27 09:24:30;;;;;;;;;;;;;;;;;;5072952;28;20052;-80
2022/08/27 09:26:56;;;;;;;1.48;0.93;;;;;;;;;;5073037;28;19908;-74
2022/08/27 09:29:24;;;;;;;2.38;1.60;;;;;;;;;;5072426;28;20035;-79
2022/08/27 09:31:57;;;;;;;0.77;0.77;;;;;;;;;;5072794;28;20026;-73
2022/08/27 09:34:23;;;;;;;0.60;0.60;;;;;;;;;;5055094;28;20035;-77
2022/08/27 09:37:07;;;;;;;0.50;0.50;;;;;;;;;;5072521;28;20024;-74
2022/08/27 09:39:51;;;;;;;0.40;0.40;;;;;;;;;;5055652;28;20424;-80
2022/08/27 09:42:23;;;;;;;0.82;0.82;;;;;;;;;;5072655;28;20181;-74
2022/08/27 09:44:48;;;;;;;0.40;0.40;;;;;;;;;;5054556;28;20039;-75
2022/08/27 09:47:14;;;;;;;0.57;0.57;;;;;;;;;;5072133;28;20572;-74
2022/08/27 09:49:40;;;;;;;0.60;0.60;;;;;;;;;;5072363;28;20028;-76
2022/08/27 09:52:06;;;;;;;0.40;0.40;;;;;;;;;;5072191;28;20020;-80
2022/08/27 09:54:36;;;;;;;0.40;0.40;;;;;;;;;;5071747;28;20035;-74
2022/08/27 09:57:02;;;;;;;0.57;0.57;;;;;;;;;;5072239;28;20024;-75
2022/08/27 09:59:35;;;;;;;1.15;0.90;;;;;;;;;;5054274;28;20608;-74
2022/08/27 10:02:18;;;;;;;0.30;0.30;;;;;;;;;;5072046;28;20029;-75
2022/08/27 10:04:44;;;;;;;0.32;0.32;;;;;;;;;;5071606;28;20178;-74
2022/08/27 10:07:15;;;;;;;0.47;0.47;;;;;;;;;;5071715;28;20116;-74
2022/08/27 10:09:46;;;;;;;1.13;1.00;;;;;;;;;;5072042;28;20028;-74
2022/08/27 10:12:21;;;;;;;0.65;0.65;;;;;;;;;;5077285;28;20107;-74
2022/08/27 10:14:51;;;;;;;2.17;0.85;;;;;;;;;;5091082;28;20017;-79
2022/08/27 10:17:16;;;;;;;0.70;0.70;;;;;;;;;;5088217;28;20380;-75
2022/08/27 10:19:56;;;;;;;0.52;0.50;;;;;;;;;;5074773;28;20036;-75
2022/08/27 10:22:34;;;;;;;3.33;0.75;;;;;;;;;;5072663;28;20036;-75
2022/08/27 10:25:18;;;;;;;1.00;0.85;;;;;;;;;;5073952;28;20036;-74
2022/08/27 10:28:10;;;;;;;2.80;1.35;;;;;;;;;;5072578;28;20025;-73
2022/08/27 10:30:41;;;;;;;0.43;0.43;;;;;;;;;;5033117;28;20098;-74
2022/08/27 10:33:25;;;;;;;3.55;1.65;;;;;;;;;;5071282;28;20094;-73
2022/08/27 10:36:04;;;;;;;0.75;0.75;;;;;;;;;;5071802;28;20056;-73
2022/08/27 10:38:35;;;;;;;1.02;0.93;;;;;;;;;;5071340;28;20096;-74
2022/08/27 10:41:06;;;;;;;46.67;2.22;;;;;;;;;;5071651;28;20037;-74
2022/08/27 10:43:32;;;;;;;0.60;0.60;;;;;;;;;;5071958;28;20048;-74
2022/08/27 10:46:16;;;;;;;1.75;1.23;;;;;;;;;;5054066;28;20571;-73
2022/08/27 10:48:46;;;;;;;1.80;1.70;;;;;;;;;;5053337;28;20028;-73
2022/08/27 10:51:11;;;;;;;;;;;;;;;;;;5071425;28;20029;-73
2022/08/27 10:53:43;;;;;;;0.60;0.60;;;;;;;;;;5071460;28;19934;-73
2022/08/27 10:56:13;;;;;;;1.20;1.10;;;;;;;;;;5071752;28;20024;-73
2022/08/27 10:58:57;;;;;;;0.80;0.73;;;;;;;;;;5071557;28;20037;-73
2022/08/27 11:01:46;;;;;;;1.55;1.10;;;;;;;;;;5071327;28;20472;-74
2022/08/27 11:04:11;;;;;;;;;;;;;;;;;;5071558;28;20049;-74
2022/08/27 11:06:40;;;;;;;6.30;0.80;;;;;;;;;;5071112;28;20009;-73
2022/08/27 11:09:18;;;;;;;2.75;1.38;;;;;;;;;;5071288;28;20032;-74
2022/08/27 11:11:48;;;;;;;0.65;0.65;;;;;;;;;;5071352;28;20739;-73
2022/08/27 11:14:29;;;;;;;1.67;1.35;;;;;;;;;;5052950;28;20046;-73
2022/08/27 11:16:58;;;;;;;0.50;0.50;;;;;;;;;;5070758;28;20032;-74
2022/08/27 11:19:25;;;;;;;1.35;1.05;;;;;;;;;;5070739;28;20025;-74
2022/08/27 11:22:01;;;;;;;1.17;1.08;;;;;;;;;;5070427;28;20019;-74
2022/08/27 11:24:47;;;;;;;1.20;0.98;;;;;;;;;;5070743;28;20119;-74
2022/08/27 11:27:21;;;;;;;0.98;0.80;;;;;;;;;;5070842;28;20089;-78
2022/08/27 11:29:58;;;;;;;0.50;0.50;;;;;;;;;;5070556;28;20024;-73
2022/08/27 11:32:42;;;;;;;1.00;0.80;;;;;;;;;;5070806;28;20417;-73
2022/08/27 11:35:19;;;;;;;1.52;0.85;;;;;;;;;;5070641;28;20068;-74
2022/08/27 11:38:00;;;;;;;0.68;0.68;;;;;;;;;;5052562;28;20086;-75
2022/08/27 11:40:36;;;;;;;2.20;0.68;;;;;;;;;;5070028;28;20079;-77
2022/08/27 11:43:06;;;;;;;0.68;0.68;;;;;;;;;;5069739;28;20041;-73
2022/08/27 11:45:37;;;;;;;5.43;0.82;;;;;;;;;;5051938;28;20084;-73
2022/08/27 11:48:17;;;;;;;0.93;0.93;;;;;;;;;;5069872;28;20376;-74
2022/08/27 11:50:51;;;;;;;1.15;1.15;;;;;;;;;;5070050;28;20029;-73
2022/08/27 11:53:22;;;;;;;0.60;0.60;;;;;;;;;;5070514;28;20060;-74
2022/08/27 11:55:48;;;;;;;1.48;1.35;;;;;;;;;;5069548;28;20501;-74
2022/08/27 11:58:17;;;;;;;3.17;1.60;;;;;;;;;;5069906;28;20105;-74
2022/08/27 12:00:44;;;;;;;2.58;1.33;;;;;;;;;;5069528;28;20036;-74
2022/08/27 12:03:09;;;;;;;0.77;0.77;;;;;;;;;;5069639;28;20031;-76
2022/08/27 12:05:38;;;;;;;1.05;0.90;;;;;;;;;;5069795;28;20058;-74
2022/08/27 12:08:21;;;;;;;0.77;0.77;;;;;;;;;;5069677;28;20039;-73
2022/08/27 12:10:59;;;;;;;1.17;0.80;;;;;;;;;;5051448;28;20302;-75
2022/08/27 12:13:24;;;;;;;0.65;0.65;;;;;;;;;;5069697;28;20162;-76
2022/08/27 12:15:52;;;;;;;1.83;1.30;;;;;;;;;;5069657;28;20078;-75
2022/08/27 12:18:21;;;;;;;0.68;0.68;;;;;;;;;;5069327;28;20974;-75
2022/08/27 12:20:46;;;;;;;1.33;0.80;;;;;;;;;;5051000;28;20032;-73
2022/08/27 12:25:57;;;;;;;0.60;0.60;;;;;;;;;;5069602;28;20086;-74
2022/08/27 12:28:24;;;;;;;1.13;1.02;;;;;;;;;;5069240;28;20036;-76
2022/08/27 12:30:53;;;;;;;0.45;0.45;;;;;;;;;;5069262;28;20017;-74
2022/08/27 12:33:38;;;;;;;0.40;0.40;;;;;;;;;;5069366;28;20066;-76
2022/08/27 12:36:24;;;;;;;0.65;0.65;;;;;;;;;;5069255;28;20045;-76
2022/08/27 12:38:52;;;;;;;2.50;1.63;;;;;;;;;;5069315;28;20068;-74
2022/08/27 12:41:24;;;;;;;0.88;0.65;;;;;;;;;;5069497;28;20412;-76
2022/08/27 12:44:01;;;;;;;0.75;0.75;;;;;;;;;;5068942;28;20036;-74
2022/08/27 12:46:27;;;;;;;1.25;1.15;;;;;;;;;;5051207;28;20107;-74
2022/08/27 12:49:03;;;;;;;1.35;0.65;;;;;;;;;;5069264;28;20353;-74
2022/08/27 12:51:31;;;;;;;1.13;1.02;;;;;;;;;;5069185;28;20048;-79
2022/08/27 12:54:04;;;;;;;0.40;0.40;;;;;;;;;;5069358;28;20028;-74
2022/08/27 12:56:35;;;;;;;4.43;0.82;;;;;;;;;;5054391;28;20078;-75
2022/08/27 12:59:01;;;;;;;0.85;0.70;;;;;;;;;;5055505;28;20090;-75
2022/08/27 13:01:36;;;;;;;0.55;0.55;;;;;;;;;;5073270;28;20032;-75
2022/08/27 13:04:01;;;;;;;0.82;0.82;;;;;;;;;;5072601;28;20087;-73
2022/08/27 13:06:29;;;;;;;2.15;1.27;;;;;;;;;;5072929;28;20056;-74
2022/08/27 13:08:56;;;;;;;0.70;0.70;;;;;;;;;;5072818;28;20021;-82
2022/08/27 13:11:24;;;;;;;0.68;0.63;;;;;;;;;;5055088;28;20483;-74
2022/08/27 13:13:50;;;;;;;0.82;0.82;;;;;;;;;;5055165;28;20083;-74
2022/08/27 13:16:19;;;;;;;0.80;0.80;;;;;;;;;;5072475;28;20035;-74
2022/08/27 13:18:48;;;;;;;1.30;1.10;;;;;;;;;;5072727;28;20060;-75
2022/08/27 13:21:22;;;;;;;0.60;0.60;;;;;;;;;;5072797;28;20110;-75
2022/08/27 13:24:08;;;;;;;0.63;0.63;;;;;;;;;;5072310;28;20044;-73
2022/08/27 13:26:37;;;;;;;1.42;0.98;;;;;;;;;;5053855;28;20156;-75
2022/08/27 13:29:06;;;;;;;0.95;0.68;;;;;;;;;;5072704;28;20012;-76
2022/08/27 13:31:33;;;;;;;1.00;0.95;;;;;;;;;;5054204;28;20105;-74
2022/08/27 13:33:59;;;;;;;0.40;0.40;;;;;;;;;;5072722;28;20141;-74
2022/08/27 13:36:51;;;;;;;0.52;0.52;;;;;;;;;;5072547;28;20095;-75
2022/08/27 13:39:16;;;;;;;0.50;0.50;;;;;;;;;;5061619;28;20039;-74
2022/08/27 13:41:45;;;;;;;0.70;0.70;;;;;;;;;;5050711;28;20053;-74
2022/08/27 13:44:13;;;;;;;0.50;0.50;;;;;;;;;;5051072;28;20033;-74
2022/08/27 13:46:45;;;;;;;0.80;0.80;;;;;;;;;;5051542;28;20396;-75
2022/08/27 13:49:13;;;;;;;0.70;0.70;;;;;;;;;;5052253;28;20495;-75
2022/08/27 13:51:38;;;;;;;0.67;0.67;;;;;;;;;;5051921;28;20396;-76
2022/08/27 13:54:12;;;;;;;0.80;0.80;;;;;;;;;;5050754;28;20017;-76
2022/08/27 13:56:47;;;;;;;0.80;0.45;;;;;;;;;;5051990;28;20025;-74
2022/08/27 13:59:14;;;;;;;1.20;1.10;;;;;;;;;;5052151;28;20036;-74
2022/08/27 14:01:54;;;;;;;0.50;0.50;;;;;;;;;;5052381;28;20463;-74
2022/08/27 14:04:22;;;;;;;1.95;1.25;;;;;;;;;;5052110;28;20090;-80
2022/08/27 14:06:48;;;;;;;4.07;0.90;;;;;;;;;;5051809;28;20048;-74
2022/08/27 14:09:15;;;;;;;2.85;1.00;;;;;;;;;;5050893;28;20176;-74
2022/08/27 14:11:41;;;;;;;1.65;1.30;;;;;;;;;;5051584;28;20029;-74
2022/08/27 14:14:07;;;;;;;0.50;0.50;;;;;;;;;;5033889;28;20419;-74
2022/08/27 14:16:34;;;;;;;0.60;0.60;;;;;;;;;;5051637;28;20036;-73
2022/08/27 14:19:11;;;;;;;0.50;0.50;;;;;;;;;;5050590;28;20013;-76
2022/08/27 14:21:38;;;;;;;0.50;0.50;;;;;;;;;;5051355;28;20071;-75
2022/08/27 14:24:04;;;;;;;1.83;1.40;;;;;;;;;;5051546;28;20033;-74
2022/08/27 14:26:31;;;;;;;2.63;1.33;;;;;;;;;;5050055;28;20143;-75
2022/08/27 14:28:57;;;;;;;0.30;0.30;;;;;;;;;;5051368;28;20483;-74
2022/08/27 14:31:23;;;;;;;0.40;0.40;;;;;;;;;;5050095;28;20021;-77
2022/08/27 14:33:52;;;;;;;0.50;0.50;;;;;;;;;;5050654;28;20366;-74
2022/08/27 14:36:18;;;;;;;1.00;0.90;;;;;;;;;;5051827;28;20033;-76
2022/08/27 14:38:46;;;;;;;0.43;0.43;;;;;;;;;;5051170;28;20040;-76
2022/08/27 14:41:12;;;;;;;1.17;1.00;;;;;;;;;;5080728;28;20079;-75
2022/08/27 14:43:38;;;;;;;0.90;0.75;;;;;;;;;;5086319;28;20043;-76
2022/08/27 14:46:05;;;;;;;1.08;0.65;;;;;;;;;;5080947;28;20021;-77
2022/08/27 14:48:32;;;;;;;0.57;0.57;;;;;;;;;;5071572;28;20060;-77
2022/08/27 14:50:58;;;;;;;0.40;0.40;;;;;;;;;;5071410;28;20032;-77
2022/08/27 14:53:25;;;;;;;0.30;0.30;;;;;;;;;;5071689;28;20032;-80
2022/08/27 14:55:51;;;;;;;1.38;1.05;;;;;;;;;;5071081;28;20032;-76
2022/08/27 14:58:16;;;;;;;0.47;0.47;;;;;;;;;;5071055;28;20163;-77
2022/08/27 15:00:42;;;;;;;1.08;0.63;;;;;;;;;;5071304;28;20032;-76